sensor_id;sensor_type;location;lat;lon;timestamp;temperature;humidity
10083;DHT22;5080;48.528;8.078;2022-07-09T00:00:12;16.80;99.90
10083;DHT22;5080;48.528;8.078;2022-07-09T00:02:39;16.80;99.90
10083;DHT22;5080;48.528;8.078;2022-07-09T00:05:06;16.80;99.90
10083;DHT22;5080;48.528;8.078;2022-07-09T00:07:34;16.80;99.90
10083;DHT22;5080;48.528;8.078;2022-07-09T00:10:01;16.70;99.90
10083;DHT22;5080;48.528;8.078;2022-07-09T00:12:28;16.70;99.90
10083;DHT22;5080;48.528;8.078;2022-07-09T00:14:56;16.70;99.90
10083;DHT22;5080;48.528;8.078;2022-07-09T00:17:23;16.50;99.90
10083;DHT22;5080;48.528;8.078;2022-07-09T00:19:51;16.50;99.90
10083;DHT22;5080;48.528;8.078;2022-07-09T00:22:18;16.40;99.90
10083;DHT22;5080;48.528;8.078;2022-07-09T00:24:45;16.30;99.90
10083;DHT22;5080;48.528;8.078;2022-07-09T00:27:12;16.20;99.90
10083;DHT22;5080;48.528;8.078;2022-07-09T00:29:38;16.10;99.90
10083;DHT22;5080;48.528;8.078;2022-07-09T00:32:07;16.10;99.90
10083;DHT22;5080;48.528;8.078;2022-07-09T00:34:34;16.10;99.90
10083;DHT22;5080;48.528;8.078;2022-07-09T00:37:01;16.10;99.90
10083;DHT22;5080;48.528;8.078;2022-07-09T00:39:28;16.10;99.90
10083;DHT22;5080;48.528;8.078;2022-07-09T00:42:02;16.20;99.90
10083;DHT22;5080;48.528;8.078;2022-07-09T00:44:29;16.30;99.90
10083;DHT22;5080;48.528;8.078;2022-07-09T00:46:56;16.20;99.90
10083;DHT22;5080;48.528;8.078;2022-07-09T00:49:25;16.10;99.90
10083;DHT22;5080;48.528;8.078;2022-07-09T00:51:54;16.20;99.90
10083;DHT22;5080;48.528;8.078;2022-07-09T00:54:21;16.10;99.90
10083;DHT22;5080;48.528;8.078;2022-07-09T00:56:48;16.10;99.90
10083;DHT22;5080;48.528;8.078;2022-07-09T00:59:16;16.10;99.90
10083;DHT22;5080;48.528;8.078;2022-07-09T01:01:43;16.10;99.90
10083;DHT22;5080;48.528;8.078;2022-07-09T01:04:10;16.10;99.90
10083;DHT22;5080;48.528;8.078;2022-07-09T01:06:39;16.10;99.90
10083;DHT22;5080;48.528;8.078;2022-07-09T01:09:05;16.10;99.90
10083;DHT22;5080;48.528;8.078;2022-07-09T01:11:32;16.10;99.90
10083;DHT22;5080;48.528;8.078;2022-07-09T01:13:59;16.10;99.90
10083;DHT22;5080;48.528;8.078;2022-07-09T01:16:31;16.10;99.90
10083;DHT22;5080;48.528;8.078;2022-07-09T01:18:58;16.00;99.90
10083;DHT22;5080;48.528;8.078;2022-07-09T01:21:27;16.00;99.90
10083;DHT22;5080;48.528;8.078;2022-07-09T01:23:54;15.90;99.90
10083;DHT22;5080;48.528;8.078;2022-07-09T01:26:22;15.90;99.90
10083;DHT22;5080;48.528;8.078;2022-07-09T01:28:50;15.80;99.90
10083;DHT22;5080;48.528;8.078;2022-07-09T01:31:16;15.90;99.90
10083;DHT22;5080;48.528;8.078;2022-07-09T01:33:43;15.80;99.90
10083;DHT22;5080;48.528;8.078;2022-07-09T01:36:11;15.80;99.90
10083;DHT22;5080;48.528;8.078;2022-07-09T01:38:39;15.70;99.90
10083;DHT22;5080;48.528;8.078;2022-07-09T01:41:06;15.70;99.90
10083;DHT22;5080;48.528;8.078;2022-07-09T01:43:32;15.70;99.90
10083;DHT22;5080;48.528;8.078;2022-07-09T01:46:00;15.70;99.90
10083;DHT22;5080;48.528;8.078;2022-07-09T01:48:27;15.60;99.90
10083;DHT22;5080;48.528;8.078;2022-07-09T01:50:54;15.70;99.90
10083;DHT22;5080;48.528;8.078;2022-07-09T01:53:21;15.50;99.90
10083;DHT22;5080;48.528;8.078;2022-07-09T01:55:49;15.40;99.90
10083;DHT22;5080;48.528;8.078;2022-07-09T01:58:16;15.40;99.90
10083;DHT22;5080;48.528;8.078;2022-07-09T02:00:44;15.30;99.90
10083;DHT22;5080;48.528;8.078;2022-07-09T02:03:11;15.20;99.90
10083;DHT22;5080;48.528;8.078;2022-07-09T02:05:38;15.20;99.90
10083;DHT22;5080;48.528;8.078;2022-07-09T02:08:05;15.30;99.90
10083;DHT22;5080;48.528;8.078;2022-07-09T02:10:32;15.20;99.90
10083;DHT22;5080;48.528;8.078;2022-07-09T02:13:00;15.20;99.90
10083;DHT22;5080;48.528;8.078;2022-07-09T02:15:27;15.00;99.90
10083;DHT22;5080;48.528;8.078;2022-07-09T02:17:54;15.00;99.90
10083;DHT22;5080;48.528;8.078;2022-07-09T02:20:21;15.00;99.90
10083;DHT22;5080;48.528;8.078;2022-07-09T02:22:48;15.00;99.90
10083;DHT22;5080;48.528;8.078;2022-07-09T02:25:15;14.90;99.90
10083;DHT22;5080;48.528;8.078;2022-07-09T02:27:42;14.90;99.90
10083;DHT22;5080;48.528;8.078;2022-07-09T02:30:10;14.90;99.90
10083;DHT22;5080;48.528;8.078;2022-07-09T02:32:37;14.90;99.90
10083;DHT22;5080;48.528;8.078;2022-07-09T02:35:06;14.80;99.90
10083;DHT22;5080;48.528;8.078;2022-07-09T02:37:33;14.80;99.90
10083;DHT22;5080;48.528;8.078;2022-07-09T02:40:00;14.80;99.90
10083;DHT22;5080;48.528;8.078;2022-07-09T02:42:27;14.80;99.90
10083;DHT22;5080;48.528;8.078;2022-07-09T02:44:54;14.60;99.90
10083;DHT22;5080;48.528;8.078;2022-07-09T02:47:22;14.60;99.90
10083;DHT22;5080;48.528;8.078;2022-07-09T02:49:49;14.70;99.90
10083;DHT22;5080;48.528;8.078;2022-07-09T02:52:16;14.70;99.90
10083;DHT22;5080;48.528;8.078;2022-07-09T02:54:43;14.70;99.90
10083;DHT22;5080;48.528;8.078;2022-07-09T02:57:10;14.70;99.90
10083;DHT22;5080;48.528;8.078;2022-07-09T02:59:37;14.70;99.90
10083;DHT22;5080;48.528;8.078;2022-07-09T03:02:05;14.80;99.90
10083;DHT22;5080;48.528;8.078;2022-07-09T03:04:33;14.80;99.90
10083;DHT22;5080;48.528;8.078;2022-07-09T03:07:00;14.80;99.90
10083;DHT22;5080;48.528;8.078;2022-07-09T03:09:26;14.80;99.90
10083;DHT22;5080;48.528;8.078;2022-07-09T03:11:54;14.80;99.90
10083;DHT22;5080;48.528;8.078;2022-07-09T03:14:21;14.70;99.90
10083;DHT22;5080;48.528;8.078;2022-07-09T03:16:48;14.70;99.90
10083;DHT22;5080;48.528;8.078;2022-07-09T03:19:15;14.70;99.90
10083;DHT22;5080;48.528;8.078;2022-07-09T03:21:43;14.80;99.90
10083;DHT22;5080;48.528;8.078;2022-07-09T03:24:10;14.80;99.90
10083;DHT22;5080;48.528;8.078;2022-07-09T03:26:38;14.70;99.90
10083;DHT22;5080;48.528;8.078;2022-07-09T03:29:04;14.80;99.90
10083;DHT22;5080;48.528;8.078;2022-07-09T03:31:32;14.60;99.90
10083;DHT22;5080;48.528;8.078;2022-07-09T03:34:00;14.60;99.90
10083;DHT22;5080;48.528;8.078;2022-07-09T03:36:27;14.70;99.90
10083;DHT22;5080;48.528;8.078;2022-07-09T03:38:55;14.60;99.90
10083;DHT22;5080;48.528;8.078;2022-07-09T03:41:22;14.60;99.90
10083;DHT22;5080;48.528;8.078;2022-07-09T03:43:48;14.50;99.90
10083;DHT22;5080;48.528;8.078;2022-07-09T03:46:15;14.50;99.90
10083;DHT22;5080;48.528;8.078;2022-07-09T03:48:42;14.50;99.90
10083;DHT22;5080;48.528;8.078;2022-07-09T03:51:10;14.50;99.90
10083;DHT22;5080;48.528;8.078;2022-07-09T03:53:36;14.40;99.90
10083;DHT22;5080;48.528;8.078;2022-07-09T03:56:06;14.50;99.90
10083;DHT22;5080;48.528;8.078;2022-07-09T03:58:33;14.50;99.90
10083;DHT22;5080;48.528;8.078;2022-07-09T04:01:01;14.40;99.90
10083;DHT22;5080;48.528;8.078;2022-07-09T04:03:28;14.40;99.90
10083;DHT22;5080;48.528;8.078;2022-07-09T04:05:55;14.40;99.90
10083;DHT22;5080;48.528;8.078;2022-07-09T04:08:22;14.40;99.90
10083;DHT22;5080;48.528;8.078;2022-07-09T04:10:49;14.40;99.90
10083;DHT22;5080;48.528;8.078;2022-07-09T04:13:17;14.40;99.90
10083;DHT22;5080;48.528;8.078;2022-07-09T04:15:44;14.50;99.90
10083;DHT22;5080;48.528;8.078;2022-07-09T04:18:12;14.50;99.90
10083;DHT22;5080;48.528;8.078;2022-07-09T04:20:39;14.50;99.90
10083;DHT22;5080;48.528;8.078;2022-07-09T04:23:07;14.60;99.90
10083;DHT22;5080;48.528;8.078;2022-07-09T04:25:33;14.60;99.90
10083;DHT22;5080;48.528;8.078;2022-07-09T04:28:00;14.60;99.90
10083;DHT22;5080;48.528;8.078;2022-07-09T04:30:29;14.60;99.90
10083;DHT22;5080;48.528;8.078;2022-07-09T04:32:55;14.70;99.90
10083;DHT22;5080;48.528;8.078;2022-07-09T04:35:22;14.70;99.90
10083;DHT22;5080;48.528;8.078;2022-07-09T04:37:49;14.70;99.90
10083;DHT22;5080;48.528;8.078;2022-07-09T04:40:16;14.70;99.90
10083;DHT22;5080;48.528;8.078;2022-07-09T04:42:43;14.70;99.90
10083;DHT22;5080;48.528;8.078;2022-07-09T04:45:10;14.70;99.90
10083;DHT22;5080;48.528;8.078;2022-07-09T04:47:39;14.70;99.90
10083;DHT22;5080;48.528;8.078;2022-07-09T04:50:06;14.80;99.90
10083;DHT22;5080;48.528;8.078;2022-07-09T04:52:33;14.80;99.90
10083;DHT22;5080;48.528;8.078;2022-07-09T04:55:00;14.80;99.90
10083;DHT22;5080;48.528;8.078;2022-07-09T04:57:27;14.80;99.90
10083;DHT22;5080;48.528;8.078;2022-07-09T04:59:57;14.80;99.90
10083;DHT22;5080;48.528;8.078;2022-07-09T05:02:25;14.90;99.90
10083;DHT22;5080;48.528;8.078;2022-07-09T05:04:53;15.00;99.90
10083;DHT22;5080;48.528;8.078;2022-07-09T05:07:20;15.10;99.90
10083;DHT22;5080;48.528;8.078;2022-07-09T05:09:46;15.10;99.90
10083;DHT22;5080;48.528;8.078;2022-07-09T05:12:13;15.30;99.90
10083;DHT22;5080;48.528;8.078;2022-07-09T05:14:40;15.40;99.90
10083;DHT22;5080;48.528;8.078;2022-07-09T05:17:07;15.50;99.90
10083;DHT22;5080;48.528;8.078;2022-07-09T05:19:34;15.60;99.90
10083;DHT22;5080;48.528;8.078;2022-07-09T05:22:03;15.70;99.90
10083;DHT22;5080;48.528;8.078;2022-07-09T05:24:30;15.90;99.90
10083;DHT22;5080;48.528;8.078;2022-07-09T05:26:57;16.20;99.90
10083;DHT22;5080;48.528;8.078;2022-07-09T05:29:23;16.40;99.90
10083;DHT22;5080;48.528;8.078;2022-07-09T05:31:52;16.60;99.90
10083;DHT22;5080;48.528;8.078;2022-07-09T05:34:19;16.70;99.90
10083;DHT22;5080;48.528;8.078;2022-07-09T05:36:46;16.90;99.90
10083;DHT22;5080;48.528;8.078;2022-07-09T05:39:14;17.00;99.90
10083;DHT22;5080;48.528;8.078;2022-07-09T05:41:41;17.30;99.90
10083;DHT22;5080;48.528;8.078;2022-07-09T05:44:08;17.40;99.90
10083;DHT22;5080;48.528;8.078;2022-07-09T05:46:35;17.60;99.90
10083;DHT22;5080;48.528;8.078;2022-07-09T05:49:02;17.80;99.90
10083;DHT22;5080;48.528;8.078;2022-07-09T05:51:29;18.00;99.90
10083;DHT22;5080;48.528;8.078;2022-07-09T05:53:55;18.10;99.90
10083;DHT22;5080;48.528;8.078;2022-07-09T05:56:24;18.30;99.90
10083;DHT22;5080;48.528;8.078;2022-07-09T05:58:51;18.50;99.90
10083;DHT22;5080;48.528;8.078;2022-07-09T06:01:18;18.70;99.90
10083;DHT22;5080;48.528;8.078;2022-07-09T06:03:45;18.80;99.90
10083;DHT22;5080;48.528;8.078;2022-07-09T06:06:12;18.90;99.90
10083;DHT22;5080;48.528;8.078;2022-07-09T06:08:39;19.00;99.90
10083;DHT22;5080;48.528;8.078;2022-07-09T06:11:06;19.30;99.90
10083;DHT22;5080;48.528;8.078;2022-07-09T06:13:34;19.40;99.90
10083;DHT22;5080;48.528;8.078;2022-07-09T06:16:01;19.50;99.90
10083;DHT22;5080;48.528;8.078;2022-07-09T06:18:28;19.70;99.90
10083;DHT22;5080;48.528;8.078;2022-07-09T06:20:55;19.80;99.90
10083;DHT22;5080;48.528;8.078;2022-07-09T06:23:23;20.00;99.90
10083;DHT22;5080;48.528;8.078;2022-07-09T06:25:50;20.20;99.90
10083;DHT22;5080;48.528;8.078;2022-07-09T06:28:16;20.30;99.90
10083;DHT22;5080;48.528;8.078;2022-07-09T06:30:45;20.50;99.90
10083;DHT22;5080;48.528;8.078;2022-07-09T06:33:11;20.60;99.90
10083;DHT22;5080;48.528;8.078;2022-07-09T06:35:39;20.70;99.90
10083;DHT22;5080;48.528;8.078;2022-07-09T06:38:06;20.80;99.90
10083;DHT22;5080;48.528;8.078;2022-07-09T06:40:33;20.80;99.90
10083;DHT22;5080;48.528;8.078;2022-07-09T06:43:00;20.80;99.90
10083;DHT22;5080;48.528;8.078;2022-07-09T06:45:27;20.80;99.90
10083;DHT22;5080;48.528;8.078;2022-07-09T06:47:55;20.80;99.90
10083;DHT22;5080;48.528;8.078;2022-07-09T06:50:22;21.00;99.90
10083;DHT22;5080;48.528;8.078;2022-07-09T06:52:49;21.00;99.90
10083;DHT22;5080;48.528;8.078;2022-07-09T06:55:16;20.80;99.90
10083;DHT22;5080;48.528;8.078;2022-07-09T06:57:43;20.70;99.90
10083;DHT22;5080;48.528;8.078;2022-07-09T07:00:10;20.70;99.90
10083;DHT22;5080;48.528;8.078;2022-07-09T07:02:37;20.90;99.90
10083;DHT22;5080;48.528;8.078;2022-07-09T07:05:06;21.10;99.90
10083;DHT22;5080;48.528;8.078;2022-07-09T07:07:33;21.30;99.90
10083;DHT22;5080;48.528;8.078;2022-07-09T07:10:00;21.40;99.90
10083;DHT22;5080;48.528;8.078;2022-07-09T07:12:27;21.50;99.90
10083;DHT22;5080;48.528;8.078;2022-07-09T07:14:54;21.50;99.90
10083;DHT22;5080;48.528;8.078;2022-07-09T07:17:21;21.60;99.90
10083;DHT22;5080;48.528;8.078;2022-07-09T07:19:48;21.60;99.90
10083;DHT22;5080;48.528;8.078;2022-07-09T07:22:16;21.70;99.90
10083;DHT22;5080;48.528;8.078;2022-07-09T07:24:43;21.90;99.90
10083;DHT22;5080;48.528;8.078;2022-07-09T07:27:10;22.00;99.90
10083;DHT22;5080;48.528;8.078;2022-07-09T07:29:37;22.10;99.90
10083;DHT22;5080;48.528;8.078;2022-07-09T07:32:04;22.00;99.90
10083;DHT22;5080;48.528;8.078;2022-07-09T07:34:31;22.00;99.90
10083;DHT22;5080;48.528;8.078;2022-07-09T07:36:58;22.10;99.90
10083;DHT22;5080;48.528;8.078;2022-07-09T07:39:26;22.20;99.90
10083;DHT22;5080;48.528;8.078;2022-07-09T07:41:53;22.30;99.90
10083;DHT22;5080;48.528;8.078;2022-07-09T07:44:20;22.40;99.90
10083;DHT22;5080;48.528;8.078;2022-07-09T07:46:48;22.50;99.90
10083;DHT22;5080;48.528;8.078;2022-07-09T07:49:15;22.60;99.90
10083;DHT22;5080;48.528;8.078;2022-07-09T07:51:43;22.70;99.90
10083;DHT22;5080;48.528;8.078;2022-07-09T07:54:10;22.70;99.90
10083;DHT22;5080;48.528;8.078;2022-07-09T07:56:39;22.60;99.90
10083;DHT22;5080;48.528;8.078;2022-07-09T07:59:06;22.80;99.90
10083;DHT22;5080;48.528;8.078;2022-07-09T08:01:33;22.90;99.90
10083;DHT22;5080;48.528;8.078;2022-07-09T08:04:00;22.90;99.90
10083;DHT22;5080;48.528;8.078;2022-07-09T08:06:27;22.90;99.90
10083;DHT22;5080;48.528;8.078;2022-07-09T08:08:54;23.00;99.90
10083;DHT22;5080;48.528;8.078;2022-07-09T08:11:21;23.00;99.90
10083;DHT22;5080;48.528;8.078;2022-07-09T08:13:49;23.20;99.90
10083;DHT22;5080;48.528;8.078;2022-07-09T08:16:16;23.20;99.90
10083;DHT22;5080;48.528;8.078;2022-07-09T08:18:44;23.40;99.90
10083;DHT22;5080;48.528;8.078;2022-07-09T08:21:11;23.60;99.90
10083;DHT22;5080;48.528;8.078;2022-07-09T08:23:38;23.30;99.90
10083;DHT22;5080;48.528;8.078;2022-07-09T08:26:19;23.40;99.90
10083;DHT22;5080;48.528;8.078;2022-07-09T08:28:48;23.40;99.90
10083;DHT22;5080;48.528;8.078;2022-07-09T08:31:15;23.40;99.90
10083;DHT22;5080;48.528;8.078;2022-07-09T08:33:42;23.50;99.90
10083;DHT22;5080;48.528;8.078;2022-07-09T08:36:09;23.50;99.90
10083;DHT22;5080;48.528;8.078;2022-07-09T08:38:36;23.70;99.90
10083;DHT22;5080;48.528;8.078;2022-07-09T08:41:04;24.00;99.90
10083;DHT22;5080;48.528;8.078;2022-07-09T08:43:32;23.90;99.90
10083;DHT22;5080;48.528;8.078;2022-07-09T08:46:01;24.00;99.90
10083;DHT22;5080;48.528;8.078;2022-07-09T08:48:28;24.10;99.90
10083;DHT22;5080;48.528;8.078;2022-07-09T08:50:59;24.20;99.90
10083;DHT22;5080;48.528;8.078;2022-07-09T08:53:27;24.30;99.90
10083;DHT22;5080;48.528;8.078;2022-07-09T08:55:55;24.50;99.90
10083;DHT22;5080;48.528;8.078;2022-07-09T08:58:22;24.60;99.90
10083;DHT22;5080;48.528;8.078;2022-07-09T09:00:49;24.60;99.90
10083;DHT22;5080;48.528;8.078;2022-07-09T09:03:18;24.60;99.90
10083;DHT22;5080;48.528;8.078;2022-07-09T09:05:45;24.70;99.90
10083;DHT22;5080;48.528;8.078;2022-07-09T09:08:19;24.80;99.90
10083;DHT22;5080;48.528;8.078;2022-07-09T09:10:47;24.80;99.90
10083;DHT22;5080;48.528;8.078;2022-07-09T09:13:16;24.90;99.90
10083;DHT22;5080;48.528;8.078;2022-07-09T09:15:43;24.80;99.90
10083;DHT22;5080;48.528;8.078;2022-07-09T09:18:10;24.70;99.90
10083;DHT22;5080;48.528;8.078;2022-07-09T09:20:44;24.80;99.90
10083;DHT22;5080;48.528;8.078;2022-07-09T09:23:15;25.10;99.90
10083;DHT22;5080;48.528;8.078;2022-07-09T09:25:42;25.30;99.90
10083;DHT22;5080;48.528;8.078;2022-07-09T09:28:09;25.30;99.90
10083;DHT22;5080;48.528;8.078;2022-07-09T09:30:41;25.20;99.90
10083;DHT22;5080;48.528;8.078;2022-07-09T09:33:08;25.20;99.90
10083;DHT22;5080;48.528;8.078;2022-07-09T09:35:36;25.20;99.90
10083;DHT22;5080;48.528;8.078;2022-07-09T09:38:09;25.40;99.90
10083;DHT22;5080;48.528;8.078;2022-07-09T09:40:36;25.70;99.90
10083;DHT22;5080;48.528;8.078;2022-07-09T09:43:04;25.80;99.90
10083;DHT22;5080;48.528;8.078;2022-07-09T09:45:33;26.10;99.90
10083;DHT22;5080;48.528;8.078;2022-07-09T09:48:00;26.10;99.90
10083;DHT22;5080;48.528;8.078;2022-07-09T09:50:28;26.20;99.90
10083;DHT22;5080;48.528;8.078;2022-07-09T09:52:55;26.20;99.90
10083;DHT22;5080;48.528;8.078;2022-07-09T09:55:24;26.10;99.90
10083;DHT22;5080;48.528;8.078;2022-07-09T09:57:51;26.00;99.90
10083;DHT22;5080;48.528;8.078;2022-07-09T10:00:19;26.10;99.90
10083;DHT22;5080;48.528;8.078;2022-07-09T10:02:47;26.00;99.90
10083;DHT22;5080;48.528;8.078;2022-07-09T10:05:15;26.00;99.90
10083;DHT22;5080;48.528;8.078;2022-07-09T10:07:43;26.00;99.90
10083;DHT22;5080;48.528;8.078;2022-07-09T10:10:17;26.10;99.90
10083;DHT22;5080;48.528;8.078;2022-07-09T10:12:46;26.20;99.90
10083;DHT22;5080;48.528;8.078;2022-07-09T10:15:23;26.10;99.90
10083;DHT22;5080;48.528;8.078;2022-07-09T10:17:52;26.30;99.90
10083;DHT22;5080;48.528;8.078;2022-07-09T10:20:29;26.30;99.90
10083;DHT22;5080;48.528;8.078;2022-07-09T10:22:57;26.40;99.90
10083;DHT22;5080;48.528;8.078;2022-07-09T10:25:29;26.50;99.90
10083;DHT22;5080;48.528;8.078;2022-07-09T10:27:58;26.80;99.90
10083;DHT22;5080;48.528;8.078;2022-07-09T10:30:26;27.00;99.90
10083;DHT22;5080;48.528;8.078;2022-07-09T10:33:04;26.90;99.90
10083;DHT22;5080;48.528;8.078;2022-07-09T10:35:38;26.80;99.90
10083;DHT22;5080;48.528;8.078;2022-07-09T10:38:05;26.90;99.90
10083;DHT22;5080;48.528;8.078;2022-07-09T10:40:38;27.10;99.90
10083;DHT22;5080;48.528;8.078;2022-07-09T10:43:07;27.00;99.90
10083;DHT22;5080;48.528;8.078;2022-07-09T10:45:38;27.10;99.90
10083;DHT22;5080;48.528;8.078;2022-07-09T10:48:06;26.80;99.90
10083;DHT22;5080;48.528;8.078;2022-07-09T10:50:37;27.00;99.90
10083;DHT22;5080;48.528;8.078;2022-07-09T10:53:04;27.10;99.90
10083;DHT22;5080;48.528;8.078;2022-07-09T10:55:31;27.30;99.90
10083;DHT22;5080;48.528;8.078;2022-07-09T10:57:59;27.50;99.90
10083;DHT22;5080;48.528;8.078;2022-07-09T11:00:30;27.50;99.90
10083;DHT22;5080;48.528;8.078;2022-07-09T11:03:00;27.50;99.90
10083;DHT22;5080;48.528;8.078;2022-07-09T11:05:30;27.50;99.90
10083;DHT22;5080;48.528;8.078;2022-07-09T11:08:02;27.50;99.90
10083;DHT22;5080;48.528;8.078;2022-07-09T11:10:30;27.60;99.90
10083;DHT22;5080;48.528;8.078;2022-07-09T11:12:58;27.70;99.90
10083;DHT22;5080;48.528;8.078;2022-07-09T11:15:29;27.70;99.90
10083;DHT22;5080;48.528;8.078;2022-07-09T11:18:00;27.90;99.90
10083;DHT22;5080;48.528;8.078;2022-07-09T11:20:28;27.90;99.90
10083;DHT22;5080;48.528;8.078;2022-07-09T11:22:55;27.70;99.90
10083;DHT22;5080;48.528;8.078;2022-07-09T11:25:24;27.80;99.90
10083;DHT22;5080;48.528;8.078;2022-07-09T11:27:53;27.90;99.90
10083;DHT22;5080;48.528;8.078;2022-07-09T11:30:20;27.90;99.90
10083;DHT22;5080;48.528;8.078;2022-07-09T11:32:49;27.70;99.90
10083;DHT22;5080;48.528;8.078;2022-07-09T11:35:26;27.80;99.90
10083;DHT22;5080;48.528;8.078;2022-07-09T11:37:54;27.90;99.90
10083;DHT22;5080;48.528;8.078;2022-07-09T11:40:21;27.70;99.90
10083;DHT22;5080;48.528;8.078;2022-07-09T11:42:48;27.90;99.90
10083;DHT22;5080;48.528;8.078;2022-07-09T11:45:20;28.10;99.90
10083;DHT22;5080;48.528;8.078;2022-07-09T11:47:49;28.20;99.90
10083;DHT22;5080;48.528;8.078;2022-07-09T11:50:18;28.40;99.90
10083;DHT22;5080;48.528;8.078;2022-07-09T11:52:46;28.50;99.90
10083;DHT22;5080;48.528;8.078;2022-07-09T11:55:15;28.30;99.90
10083;DHT22;5080;48.528;8.078;2022-07-09T11:57:52;28.20;99.90
10083;DHT22;5080;48.528;8.078;2022-07-09T12:00:23;28.40;99.90
10083;DHT22;5080;48.528;8.078;2022-07-09T12:02:52;28.70;99.90
10083;DHT22;5080;48.528;8.078;2022-07-09T12:05:27;28.80;99.90
10083;DHT22;5080;48.528;8.078;2022-07-09T12:07:56;28.90;99.90
10083;DHT22;5080;48.528;8.078;2022-07-09T12:10:28;28.90;99.90
10083;DHT22;5080;48.528;8.078;2022-07-09T12:12:56;28.60;99.90
10083;DHT22;5080;48.528;8.078;2022-07-09T12:15:23;28.50;99.90
10083;DHT22;5080;48.528;8.078;2022-07-09T12:17:55;28.40;99.90
10083;DHT22;5080;48.528;8.078;2022-07-09T12:20:23;28.20;99.90
10083;DHT22;5080;48.528;8.078;2022-07-09T12:22:51;28.20;99.90
10083;DHT22;5080;48.528;8.078;2022-07-09T12:25:18;28.00;99.90
10083;DHT22;5080;48.528;8.078;2022-07-09T12:27:46;28.20;99.90
10083;DHT22;5080;48.528;8.078;2022-07-09T12:30:13;28.40;99.90
10083;DHT22;5080;48.528;8.078;2022-07-09T12:32:41;28.70;99.90
10083;DHT22;5080;48.528;8.078;2022-07-09T12:35:10;28.80;99.90
10083;DHT22;5080;48.528;8.078;2022-07-09T12:37:37;28.30;99.90
10083;DHT22;5080;48.528;8.078;2022-07-09T12:40:06;28.00;99.90
10083;DHT22;5080;48.528;8.078;2022-07-09T12:42:33;28.00;99.90
10083;DHT22;5080;48.528;8.078;2022-07-09T12:45:00;27.90;99.90
10083;DHT22;5080;48.528;8.078;2022-07-09T12:47:27;28.20;99.90
10083;DHT22;5080;48.528;8.078;2022-07-09T12:49:54;28.30;99.90
10083;DHT22;5080;48.528;8.078;2022-07-09T12:52:22;28.60;99.90
10083;DHT22;5080;48.528;8.078;2022-07-09T12:54:49;28.50;99.90
10083;DHT22;5080;48.528;8.078;2022-07-09T12:57:16;28.00;99.90
10083;DHT22;5080;48.528;8.078;2022-07-09T12:59:43;28.10;99.90
10083;DHT22;5080;48.528;8.078;2022-07-09T13:02:10;28.40;99.90
10083;DHT22;5080;48.528;8.078;2022-07-09T13:04:37;28.60;99.90
10083;DHT22;5080;48.528;8.078;2022-07-09T13:07:04;28.70;99.90
10083;DHT22;5080;48.528;8.078;2022-07-09T13:09:32;28.70;99.90
10083;DHT22;5080;48.528;8.078;2022-07-09T13:11:59;28.80;99.90
10083;DHT22;5080;48.528;8.078;2022-07-09T13:14:26;28.90;99.90
10083;DHT22;5080;48.528;8.078;2022-07-09T13:16:53;28.90;99.90
10083;DHT22;5080;48.528;8.078;2022-07-09T13:19:20;28.60;99.90
10083;DHT22;5080;48.528;8.078;2022-07-09T13:21:47;28.60;99.90
10083;DHT22;5080;48.528;8.078;2022-07-09T13:24:14;28.60;99.90
10083;DHT22;5080;48.528;8.078;2022-07-09T13:26:42;29.00;99.90
10083;DHT22;5080;48.528;8.078;2022-07-09T13:29:09;29.00;99.90
10083;DHT22;5080;48.528;8.078;2022-07-09T13:31:36;28.90;99.90
10083;DHT22;5080;48.528;8.078;2022-07-09T13:34:03;29.10;99.90
10083;DHT22;5080;48.528;8.078;2022-07-09T13:36:30;28.90;99.90
10083;DHT22;5080;48.528;8.078;2022-07-09T13:38:57;28.60;99.90
10083;DHT22;5080;48.528;8.078;2022-07-09T13:41:23;28.50;99.90
10083;DHT22;5080;48.528;8.078;2022-07-09T13:43:52;28.50;99.90
10083;DHT22;5080;48.528;8.078;2022-07-09T13:46:19;28.80;99.90
10083;DHT22;5080;48.528;8.078;2022-07-09T13:48:45;28.90;99.90
10083;DHT22;5080;48.528;8.078;2022-07-09T13:51:12;29.00;99.90
10083;DHT22;5080;48.528;8.078;2022-07-09T13:53:39;28.90;99.90
10083;DHT22;5080;48.528;8.078;2022-07-09T13:56:08;28.90;99.90
10083;DHT22;5080;48.528;8.078;2022-07-09T13:58:35;28.90;99.90
10083;DHT22;5080;48.528;8.078;2022-07-09T14:01:03;29.00;99.90
10083;DHT22;5080;48.528;8.078;2022-07-09T14:03:30;29.00;99.90
10083;DHT22;5080;48.528;8.078;2022-07-09T14:05:57;29.00;99.90
10083;DHT22;5080;48.528;8.078;2022-07-09T14:08:24;28.70;99.90
10083;DHT22;5080;48.528;8.078;2022-07-09T14:10:53;28.70;99.90
10083;DHT22;5080;48.528;8.078;2022-07-09T14:13:24;28.70;99.90
10083;DHT22;5080;48.528;8.078;2022-07-09T14:15:53;28.70;99.90
10083;DHT22;5080;48.528;8.078;2022-07-09T14:18:21;28.70;99.90
10083;DHT22;5080;48.528;8.078;2022-07-09T14:20:49;28.60;99.90
10083;DHT22;5080;48.528;8.078;2022-07-09T14:23:16;28.50;99.90
10083;DHT22;5080;48.528;8.078;2022-07-09T14:25:43;28.50;99.90
10083;DHT22;5080;48.528;8.078;2022-07-09T14:28:09;28.60;99.90
10083;DHT22;5080;48.528;8.078;2022-07-09T14:30:36;28.70;99.90
10083;DHT22;5080;48.528;8.078;2022-07-09T14:33:04;28.90;99.90
10083;DHT22;5080;48.528;8.078;2022-07-09T14:35:32;29.00;99.90
10083;DHT22;5080;48.528;8.078;2022-07-09T14:37:59;28.70;99.90
10083;DHT22;5080;48.528;8.078;2022-07-09T14:40:26;28.70;99.90
10083;DHT22;5080;48.528;8.078;2022-07-09T14:42:53;28.70;99.90
10083;DHT22;5080;48.528;8.078;2022-07-09T14:45:20;28.80;99.90
10083;DHT22;5080;48.528;8.078;2022-07-09T14:47:49;28.90;99.90
10083;DHT22;5080;48.528;8.078;2022-07-09T14:50:16;29.00;99.90
10083;DHT22;5080;48.528;8.078;2022-07-09T14:52:45;28.90;99.90
10083;DHT22;5080;48.528;8.078;2022-07-09T14:55:12;28.80;99.90
10083;DHT22;5080;48.528;8.078;2022-07-09T14:57:39;28.60;99.90
10083;DHT22;5080;48.528;8.078;2022-07-09T15:00:07;28.70;99.90
10083;DHT22;5080;48.528;8.078;2022-07-09T15:02:34;28.80;99.90
10083;DHT22;5080;48.528;8.078;2022-07-09T15:05:02;28.90;99.90
10083;DHT22;5080;48.528;8.078;2022-07-09T15:07:29;28.50;99.90
10083;DHT22;5080;48.528;8.078;2022-07-09T15:09:57;28.60;99.90
10083;DHT22;5080;48.528;8.078;2022-07-09T15:12:24;28.70;99.90
10083;DHT22;5080;48.528;8.078;2022-07-09T15:14:51;28.80;99.90
10083;DHT22;5080;48.528;8.078;2022-07-09T15:17:17;28.80;99.90
10083;DHT22;5080;48.528;8.078;2022-07-09T15:19:44;28.80;99.90
10083;DHT22;5080;48.528;8.078;2022-07-09T15:22:11;28.70;99.90
10083;DHT22;5080;48.528;8.078;2022-07-09T15:24:38;28.80;99.90
10083;DHT22;5080;48.528;8.078;2022-07-09T15:27:07;28.70;99.90
10083;DHT22;5080;48.528;8.078;2022-07-09T15:29:34;28.70;99.90
10083;DHT22;5080;48.528;8.078;2022-07-09T15:32:00;28.90;99.90
10083;DHT22;5080;48.528;8.078;2022-07-09T15:34:27;29.00;99.90
10083;DHT22;5080;48.528;8.078;2022-07-09T15:36:54;28.90;99.90
10083;DHT22;5080;48.528;8.078;2022-07-09T15:39:21;28.80;99.90
10083;DHT22;5080;48.528;8.078;2022-07-09T15:41:48;28.50;99.90
10083;DHT22;5080;48.528;8.078;2022-07-09T15:44:16;28.30;99.90
10083;DHT22;5080;48.528;8.078;2022-07-09T15:46:43;28.10;99.90